Terminal Aerodrome Forecast
Issued by NWS

Home | Current Version | Previous Version | Text Only | Print | Product List | Glossary On
Versions: 1 2 3 4 5 6 7 8 9 10 11 12 13 14 15 16 17 18 19 20 21 22 23 24 25 26 27
000
FTUS45 KPSR 291100 RRA
TAFIWA
TAF
KIWA 291141Z 2912/3012 12004KT P6SM BKN180 OVC250
     FM292100 23006KT P6SM OVC100
     FM300300 09006KT P6SM VCSH BKN040 OVC060 PROB30 3004/3008 P6SM
      -SHRA OVC040
     FM300800 11004KT P6SM VCSH BKN040 OVC060
      TEMPO 3008/3012 6SM -RA BR
      AMD LTD TO CLD VIS AND WIND TIL 291300=

USA.gov is the U.S. government's official web portal to all federal, state and local government web resources and services.